sensor_id;sensor_type;location;lat;lon;timestamp;temperature;humidity
37560;DHT22;23398;50.928;7.084;2024-02-23T00:01:36;10.50;67.30
37560;DHT22;23398;50.928;7.084;2024-02-23T00:04:02;10.50;67.10
37560;DHT22;23398;50.928;7.084;2024-02-23T00:06:28;10.60;67.10
37560;DHT22;23398;50.928;7.084;2024-02-23T00:08:54;10.60;67.10
37560;DHT22;23398;50.928;7.084;2024-02-23T00:11:21;10.60;67.10
37560;DHT22;23398;50.928;7.084;2024-02-23T00:13:46;10.70;67.30
37560;DHT22;23398;50.928;7.084;2024-02-23T00:16:12;10.70;67.30
37560;DHT22;23398;50.928;7.084;2024-02-23T00:18:38;10.70;67.20
37560;DHT22;23398;50.928;7.084;2024-02-23T00:21:04;10.70;68.00
37560;DHT22;23398;50.928;7.084;2024-02-23T00:23:29;10.70;67.20
37560;DHT22;23398;50.928;7.084;2024-02-23T00:25:55;10.70;67.40
37560;DHT22;23398;50.928;7.084;2024-02-23T00:28:21;10.70;67.50
37560;DHT22;23398;50.928;7.084;2024-02-23T00:30:47;10.70;67.80
37560;DHT22;23398;50.928;7.084;2024-02-23T00:33:16;10.70;68.00
37560;DHT22;23398;50.928;7.084;2024-02-23T00:35:42;10.70;68.10
37560;DHT22;23398;50.928;7.084;2024-02-23T00:38:07;10.70;68.90
37560;DHT22;23398;50.928;7.084;2024-02-23T00:40:33;10.70;68.10
37560;DHT22;23398;50.928;7.084;2024-02-23T00:42:59;10.80;68.20
37560;DHT22;23398;50.928;7.084;2024-02-23T00:45:25;10.70;68.00
37560;DHT22;23398;50.928;7.084;2024-02-23T00:47:51;10.80;68.20
37560;DHT22;23398;50.928;7.084;2024-02-23T00:50:17;10.70;68.10
37560;DHT22;23398;50.928;7.084;2024-02-23T00:52:42;10.80;68.20
37560;DHT22;23398;50.928;7.084;2024-02-23T00:55:08;10.70;67.90
37560;DHT22;23398;50.928;7.084;2024-02-23T00:57:35;10.70;67.70
37560;DHT22;23398;50.928;7.084;2024-02-23T01:00:01;10.70;67.40
37560;DHT22;23398;50.928;7.084;2024-02-23T01:02:28;10.60;67.10
37560;DHT22;23398;50.928;7.084;2024-02-23T01:04:55;10.60;67.00
37560;DHT22;23398;50.928;7.084;2024-02-23T01:07:22;10.50;66.70
37560;DHT22;23398;50.928;7.084;2024-02-23T01:09:48;10.40;66.60
37560;DHT22;23398;50.928;7.084;2024-02-23T01:12:14;10.30;66.50
37560;DHT22;23398;50.928;7.084;2024-02-23T01:14:39;10.20;66.50
37560;DHT22;23398;50.928;7.084;2024-02-23T01:17:05;10.10;66.50
37560;DHT22;23398;50.928;7.084;2024-02-23T01:19:31;10.00;66.50
37560;DHT22;23398;50.928;7.084;2024-02-23T01:21:56;9.90;67.60
37560;DHT22;23398;50.928;7.084;2024-02-23T01:24:28;9.90;67.60
37560;DHT22;23398;50.928;7.084;2024-02-23T01:26:55;9.80;67.80
37560;DHT22;23398;50.928;7.084;2024-02-23T01:29:22;9.70;67.80
37560;DHT22;23398;50.928;7.084;2024-02-23T01:31:48;9.60;68.00
37560;DHT22;23398;50.928;7.084;2024-02-23T01:34:14;9.50;68.00
37560;DHT22;23398;50.928;7.084;2024-02-23T01:36:39;9.20;68.00
37560;DHT22;23398;50.928;7.084;2024-02-23T01:39:05;9.40;68.40
37560;DHT22;23398;50.928;7.084;2024-02-23T01:41:31;9.40;68.60
37560;DHT22;23398;50.928;7.084;2024-02-23T01:43:58;9.30;68.70
37560;DHT22;23398;50.928;7.084;2024-02-23T01:46:23;9.30;68.80
37560;DHT22;23398;50.928;7.084;2024-02-23T01:48:49;9.30;69.00
37560;DHT22;23398;50.928;7.084;2024-02-23T01:51:15;9.30;69.00
37560;DHT22;23398;50.928;7.084;2024-02-23T01:53:40;9.30;69.00
37560;DHT22;23398;50.928;7.084;2024-02-23T01:56:06;9.30;68.90
37560;DHT22;23398;50.928;7.084;2024-02-23T01:58:34;9.30;68.90
37560;DHT22;23398;50.928;7.084;2024-02-23T02:01:00;9.30;68.80
37560;DHT22;23398;50.928;7.084;2024-02-23T02:03:26;9.30;68.90
37560;DHT22;23398;50.928;7.084;2024-02-23T02:05:53;9.30;69.00
37560;DHT22;23398;50.928;7.084;2024-02-23T02:08:19;9.20;69.10
37560;DHT22;23398;50.928;7.084;2024-02-23T02:10:45;9.30;69.00
37560;DHT22;23398;50.928;7.084;2024-02-23T02:13:12;9.20;69.00
37560;DHT22;23398;50.928;7.084;2024-02-23T02:15:38;9.20;69.10
37560;DHT22;23398;50.928;7.084;2024-02-23T02:18:04;9.30;69.30
37560;DHT22;23398;50.928;7.084;2024-02-23T02:20:32;9.30;69.40
37560;DHT22;23398;50.928;7.084;2024-02-23T02:22:58;9.30;69.50
37560;DHT22;23398;50.928;7.084;2024-02-23T02:25:24;9.30;69.60
37560;DHT22;23398;50.928;7.084;2024-02-23T02:27:50;9.40;69.70
37560;DHT22;23398;50.928;7.084;2024-02-23T02:30:15;9.40;69.50
37560;DHT22;23398;50.928;7.084;2024-02-23T02:32:41;9.50;69.30
37560;DHT22;23398;50.928;7.084;2024-02-23T02:35:07;9.50;69.40
37560;DHT22;23398;50.928;7.084;2024-02-23T02:37:32;9.50;68.70
37560;DHT22;23398;50.928;7.084;2024-02-23T02:39:58;9.50;68.30
37560;DHT22;23398;50.928;7.084;2024-02-23T02:42:23;9.50;68.00
37560;DHT22;23398;50.928;7.084;2024-02-23T02:44:49;9.40;67.80
37560;DHT22;23398;50.928;7.084;2024-02-23T02:47:14;9.40;67.70
37560;DHT22;23398;50.928;7.084;2024-02-23T02:49:40;9.30;67.50
37560;DHT22;23398;50.928;7.084;2024-02-23T02:52:06;9.30;67.40
37560;DHT22;23398;50.928;7.084;2024-02-23T02:54:33;9.20;67.30
37560;DHT22;23398;50.928;7.084;2024-02-23T02:56:59;9.20;67.30
37560;DHT22;23398;50.928;7.084;2024-02-23T02:59:25;9.10;67.40
37560;DHT22;23398;50.928;7.084;2024-02-23T03:01:50;9.00;67.40
37560;DHT22;23398;50.928;7.084;2024-02-23T03:04:16;9.00;67.40
37560;DHT22;23398;50.928;7.084;2024-02-23T03:06:41;8.90;67.50
37560;DHT22;23398;50.928;7.084;2024-02-23T03:09:07;8.90;67.60
37560;DHT22;23398;50.928;7.084;2024-02-23T03:11:33;8.90;67.60
37560;DHT22;23398;50.928;7.084;2024-02-23T03:13:59;8.80;67.50
37560;DHT22;23398;50.928;7.084;2024-02-23T03:16:24;8.80;67.60
37560;DHT22;23398;50.928;7.084;2024-02-23T03:18:52;8.70;67.60
37560;DHT22;23398;50.928;7.084;2024-02-23T03:21:19;8.70;67.60
37560;DHT22;23398;50.928;7.084;2024-02-23T03:23:45;8.70;67.80
37560;DHT22;23398;50.928;7.084;2024-02-23T03:26:11;8.60;67.80
37560;DHT22;23398;50.928;7.084;2024-02-23T03:28:36;8.60;67.90
37560;DHT22;23398;50.928;7.084;2024-02-23T03:31:02;8.50;67.90
37560;DHT22;23398;50.928;7.084;2024-02-23T03:33:27;7.70;67.10
37560;DHT22;23398;50.928;7.084;2024-02-23T03:35:53;8.50;67.90
37560;DHT22;23398;50.928;7.084;2024-02-23T03:38:19;8.50;68.00
37560;DHT22;23398;50.928;7.084;2024-02-23T03:40:44;8.40;68.00
37560;DHT22;23398;50.928;7.084;2024-02-23T03:43:10;8.40;68.00
37560;DHT22;23398;50.928;7.084;2024-02-23T03:45:36;8.40;68.10
37560;DHT22;23398;50.928;7.084;2024-02-23T03:48:03;8.30;68.00
37560;DHT22;23398;50.928;7.084;2024-02-23T03:50:29;8.40;68.20
37560;DHT22;23398;50.928;7.084;2024-02-23T03:52:55;8.30;68.00
37560;DHT22;23398;50.928;7.084;2024-02-23T03:55:20;8.30;68.10
37560;DHT22;23398;50.928;7.084;2024-02-23T03:57:47;8.30;68.20
37560;DHT22;23398;50.928;7.084;2024-02-23T04:00:13;8.30;68.30
37560;DHT22;23398;50.928;7.084;2024-02-23T04:02:39;8.20;68.40
37560;DHT22;23398;50.928;7.084;2024-02-23T04:05:05;8.20;68.50
37560;DHT22;23398;50.928;7.084;2024-02-23T04:07:31;8.20;68.60
37560;DHT22;23398;50.928;7.084;2024-02-23T04:09:57;8.20;68.70
37560;DHT22;23398;50.928;7.084;2024-02-23T04:12:23;8.20;68.80
37560;DHT22;23398;50.928;7.084;2024-02-23T04:14:49;8.20;68.90
37560;DHT22;23398;50.928;7.084;2024-02-23T04:17:15;8.30;69.20
37560;DHT22;23398;50.928;7.084;2024-02-23T04:19:41;8.30;69.40
37560;DHT22;23398;50.928;7.084;2024-02-23T04:22:07;8.40;69.50
37560;DHT22;23398;50.928;7.084;2024-02-23T04:24:38;8.40;69.50
37560;DHT22;23398;50.928;7.084;2024-02-23T04:27:04;8.50;69.50
37560;DHT22;23398;50.928;7.084;2024-02-23T04:29:30;8.60;69.50
37560;DHT22;23398;50.928;7.084;2024-02-23T04:31:57;8.60;69.40
37560;DHT22;23398;50.928;7.084;2024-02-23T04:34:23;8.70;69.40
37560;DHT22;23398;50.928;7.084;2024-02-23T04:36:49;8.70;69.20
37560;DHT22;23398;50.928;7.084;2024-02-23T04:39:14;8.80;69.20
37560;DHT22;23398;50.928;7.084;2024-02-23T04:41:40;8.90;69.20
37560;DHT22;23398;50.928;7.084;2024-02-23T04:44:05;8.90;69.00
37560;DHT22;23398;50.928;7.084;2024-02-23T04:46:31;9.00;69.00
37560;DHT22;23398;50.928;7.084;2024-02-23T04:48:57;9.00;68.80
37560;DHT22;23398;50.928;7.084;2024-02-23T04:51:23;9.10;68.80
37560;DHT22;23398;50.928;7.084;2024-02-23T04:53:49;9.10;68.50
37560;DHT22;23398;50.928;7.084;2024-02-23T04:56:15;9.10;68.40
37560;DHT22;23398;50.928;7.084;2024-02-23T04:58:40;9.20;68.20
37560;DHT22;23398;50.928;7.084;2024-02-23T05:01:08;9.20;68.00
37560;DHT22;23398;50.928;7.084;2024-02-23T05:03:33;9.30;68.00
37560;DHT22;23398;50.928;7.084;2024-02-23T05:05:59;9.30;68.10
37560;DHT22;23398;50.928;7.084;2024-02-23T05:08:25;9.30;68.00
37560;DHT22;23398;50.928;7.084;2024-02-23T05:10:52;9.30;67.90
37560;DHT22;23398;50.928;7.084;2024-02-23T05:13:18;9.40;68.00
37560;DHT22;23398;50.928;7.084;2024-02-23T05:15:43;9.40;67.90
37560;DHT22;23398;50.928;7.084;2024-02-23T05:18:09;9.40;67.90
37560;DHT22;23398;50.928;7.084;2024-02-23T05:20:35;9.40;67.90
37560;DHT22;23398;50.928;7.084;2024-02-23T05:23:00;9.50;68.00
37560;DHT22;23398;50.928;7.084;2024-02-23T05:25:26;9.50;67.80
37560;DHT22;23398;50.928;7.084;2024-02-23T05:27:52;9.50;67.70
37560;DHT22;23398;50.928;7.084;2024-02-23T05:30:18;9.50;67.60
37560;DHT22;23398;50.928;7.084;2024-02-23T05:32:43;9.50;67.40
37560;DHT22;23398;50.928;7.084;2024-02-23T05:35:09;9.50;67.20
37560;DHT22;23398;50.928;7.084;2024-02-23T05:37:37;9.50;67.00
37560;DHT22;23398;50.928;7.084;2024-02-23T05:40:04;9.50;66.80
37560;DHT22;23398;50.928;7.084;2024-02-23T05:42:32;9.40;66.70
37560;DHT22;23398;50.928;7.084;2024-02-23T05:44:58;9.30;66.50
37560;DHT22;23398;50.928;7.084;2024-02-23T05:47:24;9.20;66.50
37560;DHT22;23398;50.928;7.084;2024-02-23T05:49:50;9.20;66.60
37560;DHT22;23398;50.928;7.084;2024-02-23T05:52:16;9.10;66.60
37560;DHT22;23398;50.928;7.084;2024-02-23T05:54:42;9.00;66.60
37560;DHT22;23398;50.928;7.084;2024-02-23T05:57:07;8.90;66.60
37560;DHT22;23398;50.928;7.084;2024-02-23T05:59:33;8.90;66.60
37560;DHT22;23398;50.928;7.084;2024-02-23T06:01:59;8.80;66.60
37560;DHT22;23398;50.928;7.084;2024-02-23T06:04:25;8.70;66.60
37560;DHT22;23398;50.928;7.084;2024-02-23T06:06:50;8.60;66.80
37560;DHT22;23398;50.928;7.084;2024-02-23T06:09:16;8.60;66.90
37560;DHT22;23398;50.928;7.084;2024-02-23T06:11:41;8.50;67.00
37560;DHT22;23398;50.928;7.084;2024-02-23T06:14:07;8.40;67.00
37560;DHT22;23398;50.928;7.084;2024-02-23T06:16:33;8.30;67.00
37560;DHT22;23398;50.928;7.084;2024-02-23T06:18:59;8.30;67.20
37560;DHT22;23398;50.928;7.084;2024-02-23T06:21:25;8.20;67.20
37560;DHT22;23398;50.928;7.084;2024-02-23T06:23:50;8.20;67.30
37560;DHT22;23398;50.928;7.084;2024-02-23T06:26:16;8.10;67.60
37560;DHT22;23398;50.928;7.084;2024-02-23T06:28:42;8.10;67.20
37560;DHT22;23398;50.928;7.084;2024-02-23T06:31:08;8.00;67.90
37560;DHT22;23398;50.928;7.084;2024-02-23T06:33:34;8.10;68.10
37560;DHT22;23398;50.928;7.084;2024-02-23T06:35:59;8.00;68.10
37560;DHT22;23398;50.928;7.084;2024-02-23T06:38:25;8.00;68.20
37560;DHT22;23398;50.928;7.084;2024-02-23T06:40:51;8.00;68.30
37560;DHT22;23398;50.928;7.084;2024-02-23T06:43:17;8.00;68.40
37560;DHT22;23398;50.928;7.084;2024-02-23T06:45:43;8.00;68.60
37560;DHT22;23398;50.928;7.084;2024-02-23T06:48:09;8.00;68.60
37560;DHT22;23398;50.928;7.084;2024-02-23T06:50:35;8.00;68.80
37560;DHT22;23398;50.928;7.084;2024-02-23T06:53:01;8.00;68.80
37560;DHT22;23398;50.928;7.084;2024-02-23T06:55:27;8.00;68.90
37560;DHT22;23398;50.928;7.084;2024-02-23T06:57:54;8.10;69.00
37560;DHT22;23398;50.928;7.084;2024-02-23T07:00:21;8.10;69.00
37560;DHT22;23398;50.928;7.084;2024-02-23T07:02:49;8.10;68.90
37560;DHT22;23398;50.928;7.084;2024-02-23T07:05:14;8.10;69.10
37560;DHT22;23398;50.928;7.084;2024-02-23T07:07:40;8.10;68.80
37560;DHT22;23398;50.928;7.084;2024-02-23T07:10:07;8.20;68.90
37560;DHT22;23398;50.928;7.084;2024-02-23T07:12:33;8.20;68.90
37560;DHT22;23398;50.928;7.084;2024-02-23T07:14:59;8.20;69.00
37560;DHT22;23398;50.928;7.084;2024-02-23T07:17:24;8.30;69.20
37560;DHT22;23398;50.928;7.084;2024-02-23T07:19:50;8.30;69.40
37560;DHT22;23398;50.928;7.084;2024-02-23T07:22:17;8.30;69.60
37560;DHT22;23398;50.928;7.084;2024-02-23T07:24:46;8.40;69.80
37560;DHT22;23398;50.928;7.084;2024-02-23T07:27:11;8.50;70.20
37560;DHT22;23398;50.928;7.084;2024-02-23T07:29:37;8.50;70.40
37560;DHT22;23398;50.928;7.084;2024-02-23T07:32:03;8.70;70.50
37560;DHT22;23398;50.928;7.084;2024-02-23T07:34:30;8.80;70.70
37560;DHT22;23398;50.928;7.084;2024-02-23T07:36:55;8.90;70.70
37560;DHT22;23398;50.928;7.084;2024-02-23T07:39:21;9.00;70.70
37560;DHT22;23398;50.928;7.084;2024-02-23T07:41:47;9.20;70.80
37560;DHT22;23398;50.928;7.084;2024-02-23T07:44:13;9.30;70.60
37560;DHT22;23398;50.928;7.084;2024-02-23T07:46:39;9.40;70.30
37560;DHT22;23398;50.928;7.084;2024-02-23T07:49:05;9.60;70.00
37560;DHT22;23398;50.928;7.084;2024-02-23T07:51:33;9.70;69.50
37560;DHT22;23398;50.928;7.084;2024-02-23T07:53:59;9.80;69.10
37560;DHT22;23398;50.928;7.084;2024-02-23T07:56:24;9.90;68.60
37560;DHT22;23398;50.928;7.084;2024-02-23T07:58:50;10.00;67.20
37560;DHT22;23398;50.928;7.084;2024-02-23T08:01:15;10.00;66.80
37560;DHT22;23398;50.928;7.084;2024-02-23T08:03:41;10.10;66.90
37560;DHT22;23398;50.928;7.084;2024-02-23T08:06:07;10.10;66.80
37560;DHT22;23398;50.928;7.084;2024-02-23T08:08:33;10.20;66.90
37560;DHT22;23398;50.928;7.084;2024-02-23T08:11:03;10.30;67.10
37560;DHT22;23398;50.928;7.084;2024-02-23T08:13:29;10.40;68.00
37560;DHT22;23398;50.928;7.084;2024-02-23T08:15:55;10.60;69.30
37560;DHT22;23398;50.928;7.084;2024-02-23T08:18:20;10.90;70.50
37560;DHT22;23398;50.928;7.084;2024-02-23T08:20:48;11.30;70.90
37560;DHT22;23398;50.928;7.084;2024-02-23T08:23:14;11.80;70.50
37560;DHT22;23398;50.928;7.084;2024-02-23T08:25:39;12.30;69.50
37560;DHT22;23398;50.928;7.084;2024-02-23T08:28:05;12.80;68.20
37560;DHT22;23398;50.928;7.084;2024-02-23T08:30:31;13.20;67.00
37560;DHT22;23398;50.928;7.084;2024-02-23T08:32:57;13.40;65.10
37560;DHT22;23398;50.928;7.084;2024-02-23T08:35:22;13.60;64.00
37560;DHT22;23398;50.928;7.084;2024-02-23T08:37:48;13.70;63.20
37560;DHT22;23398;50.928;7.084;2024-02-23T08:40:14;13.80;62.20
37560;DHT22;23398;50.928;7.084;2024-02-23T08:42:39;13.80;62.00
37560;DHT22;23398;50.928;7.084;2024-02-23T08:45:05;13.80;61.60
37560;DHT22;23398;50.928;7.084;2024-02-23T08:47:31;13.70;60.90
37560;DHT22;23398;50.928;7.084;2024-02-23T08:50:01;13.70;61.00
37560;DHT22;23398;50.928;7.084;2024-02-23T08:52:26;13.70;60.80
37560;DHT22;23398;50.928;7.084;2024-02-23T08:54:52;13.70;60.90
37560;DHT22;23398;50.928;7.084;2024-02-23T08:57:18;13.60;60.70
37560;DHT22;23398;50.928;7.084;2024-02-23T08:59:48;13.50;60.80
37560;DHT22;23398;50.928;7.084;2024-02-23T09:02:14;13.50;60.30
37560;DHT22;23398;50.928;7.084;2024-02-23T09:04:39;13.50;60.40
37560;DHT22;23398;50.928;7.084;2024-02-23T09:07:05;13.50;60.30
37560;DHT22;23398;50.928;7.084;2024-02-23T09:09:31;13.40;60.00
37560;DHT22;23398;50.928;7.084;2024-02-23T09:11:56;13.40;59.90
37560;DHT22;23398;50.928;7.084;2024-02-23T09:14:22;13.40;60.00
37560;DHT22;23398;50.928;7.084;2024-02-23T09:16:48;13.40;60.00
37560;DHT22;23398;50.928;7.084;2024-02-23T09:19:16;13.30;60.00
37560;DHT22;23398;50.928;7.084;2024-02-23T09:21:42;13.40;60.10
37560;DHT22;23398;50.928;7.084;2024-02-23T09:24:07;13.30;60.00
37560;DHT22;23398;50.928;7.084;2024-02-23T09:26:33;13.30;60.00
37560;DHT22;23398;50.928;7.084;2024-02-23T09:28:59;13.40;60.00
37560;DHT22;23398;50.928;7.084;2024-02-23T09:31:24;13.40;59.90
37560;DHT22;23398;50.928;7.084;2024-02-23T09:33:51;13.30;59.80
37560;DHT22;23398;50.928;7.084;2024-02-23T09:36:17;13.30;59.60
37560;DHT22;23398;50.928;7.084;2024-02-23T09:38:43;13.30;59.60
37560;DHT22;23398;50.928;7.084;2024-02-23T09:41:22;13.30;59.80
37560;DHT22;23398;50.928;7.084;2024-02-23T09:43:49;13.30;59.70
37560;DHT22;23398;50.928;7.084;2024-02-23T09:46:16;13.30;59.80
37560;DHT22;23398;50.928;7.084;2024-02-23T09:48:43;13.30;59.80
37560;DHT22;23398;50.928;7.084;2024-02-23T09:51:10;13.40;60.60
37560;DHT22;23398;50.928;7.084;2024-02-23T09:53:38;13.60;61.50
37560;DHT22;23398;50.928;7.084;2024-02-23T09:56:05;13.80;61.40
37560;DHT22;23398;50.928;7.084;2024-02-23T09:58:32;14.10;60.80
37560;DHT22;23398;50.928;7.084;2024-02-23T10:00:58;14.30;60.20
37560;DHT22;23398;50.928;7.084;2024-02-23T10:03:28;14.50;60.00
37560;DHT22;23398;50.928;7.084;2024-02-23T10:05:59;14.70;59.80
37560;DHT22;23398;50.928;7.084;2024-02-23T10:08:27;14.90;60.30
37560;DHT22;23398;50.928;7.084;2024-02-23T10:10:54;15.30;60.80
37560;DHT22;23398;50.928;7.084;2024-02-23T10:13:23;15.60;60.10
37560;DHT22;23398;50.928;7.084;2024-02-23T10:15:52;15.90;59.40
37560;DHT22;23398;50.928;7.084;2024-02-23T10:18:19;16.20;58.80
37560;DHT22;23398;50.928;7.084;2024-02-23T10:20:46;16.40;57.90
37560;DHT22;23398;50.928;7.084;2024-02-23T10:23:12;16.50;57.30
37560;DHT22;23398;50.928;7.084;2024-02-23T10:25:37;16.50;56.90
37560;DHT22;23398;50.928;7.084;2024-02-23T10:28:04;16.60;56.80
37560;DHT22;23398;50.928;7.084;2024-02-23T10:30:30;16.60;56.40
37560;DHT22;23398;50.928;7.084;2024-02-23T10:32:57;16.50;55.70
37560;DHT22;23398;50.928;7.084;2024-02-23T10:35:24;16.40;55.50
37560;DHT22;23398;50.928;7.084;2024-02-23T10:37:50;16.30;55.30
37560;DHT22;23398;50.928;7.084;2024-02-23T10:40:18;16.20;55.30
37560;DHT22;23398;50.928;7.084;2024-02-23T10:42:46;16.10;55.40
37560;DHT22;23398;50.928;7.084;2024-02-23T10:45:18;16.00;55.70
37560;DHT22;23398;50.928;7.084;2024-02-23T10:47:44;15.90;56.00
37560;DHT22;23398;50.928;7.084;2024-02-23T10:50:10;15.90;56.10
37560;DHT22;23398;50.928;7.084;2024-02-23T10:52:43;15.90;56.20
37560;DHT22;23398;50.928;7.084;2024-02-23T10:55:10;15.90;56.50
37560;DHT22;23398;50.928;7.084;2024-02-23T10:57:36;15.90;56.40
37560;DHT22;23398;50.928;7.084;2024-02-23T11:00:03;15.90;56.50
37560;DHT22;23398;50.928;7.084;2024-02-23T11:02:43;15.90;56.30
37560;DHT22;23398;50.928;7.084;2024-02-23T11:05:10;16.00;56.20
37560;DHT22;23398;50.928;7.084;2024-02-23T11:07:40;16.00;56.00
37560;DHT22;23398;50.928;7.084;2024-02-23T11:10:07;16.00;55.60
37560;DHT22;23398;50.928;7.084;2024-02-23T11:12:34;16.10;56.40
37560;DHT22;23398;50.928;7.084;2024-02-23T11:15:01;16.10;55.90
37560;DHT22;23398;50.928;7.084;2024-02-23T11:17:28;16.20;55.90
37560;DHT22;23398;50.928;7.084;2024-02-23T11:19:55;16.20;55.50
37560;DHT22;23398;50.928;7.084;2024-02-23T11:22:33;16.30;55.40
37560;DHT22;23398;50.928;7.084;2024-02-23T11:25:07;16.30;54.90
37560;DHT22;23398;50.928;7.084;2024-02-23T11:27:37;16.30;54.60
37560;DHT22;23398;50.928;7.084;2024-02-23T11:30:07;16.30;54.80
37560;DHT22;23398;50.928;7.084;2024-02-23T11:32:58;16.30;54.50
37560;DHT22;23398;50.928;7.084;2024-02-23T11:35:25;16.30;54.50
37560;DHT22;23398;50.928;7.084;2024-02-23T11:37:53;16.30;55.60
37560;DHT22;23398;50.928;7.084;2024-02-23T11:40:27;16.20;55.90
37560;DHT22;23398;50.928;7.084;2024-02-23T11:42:54;16.10;55.10
37560;DHT22;23398;50.928;7.084;2024-02-23T11:45:20;16.10;55.50
37560;DHT22;23398;50.928;7.084;2024-02-23T11:47:45;16.10;55.70
37560;DHT22;23398;50.928;7.084;2024-02-23T11:50:11;16.10;55.40
37560;DHT22;23398;50.928;7.084;2024-02-23T11:52:40;16.00;55.10
37560;DHT22;23398;50.928;7.084;2024-02-23T11:55:06;16.00;55.10
37560;DHT22;23398;50.928;7.084;2024-02-23T11:57:33;16.00;55.10
37560;DHT22;23398;50.928;7.084;2024-02-23T12:00:01;16.00;55.10
37560;DHT22;23398;50.928;7.084;2024-02-23T12:02:27;15.90;55.10
37560;DHT22;23398;50.928;7.084;2024-02-23T12:04:52;15.90;55.00
37560;DHT22;23398;50.928;7.084;2024-02-23T12:07:18;15.90;55.20
37560;DHT22;23398;50.928;7.084;2024-02-23T12:09:45;15.80;55.00
37560;DHT22;23398;50.928;7.084;2024-02-23T12:12:10;15.70;54.80
37560;DHT22;23398;50.928;7.084;2024-02-23T12:14:36;15.70;54.80
37560;DHT22;23398;50.928;7.084;2024-02-23T12:17:02;15.60;54.80
37560;DHT22;23398;50.928;7.084;2024-02-23T12:19:29;15.60;54.70
37560;DHT22;23398;50.928;7.084;2024-02-23T12:22:02;15.50;54.90
37560;DHT22;23398;50.928;7.084;2024-02-23T12:24:29;15.50;55.30
37560;DHT22;23398;50.928;7.084;2024-02-23T12:26:55;15.40;54.80
37560;DHT22;23398;50.928;7.084;2024-02-23T12:29:21;15.30;54.80
37560;DHT22;23398;50.928;7.084;2024-02-23T12:31:47;15.30;54.80
37560;DHT22;23398;50.928;7.084;2024-02-23T12:34:13;15.30;54.80
37560;DHT22;23398;50.928;7.084;2024-02-23T12:36:39;15.20;54.80
37560;DHT22;23398;50.928;7.084;2024-02-23T12:39:05;15.10;54.80
37560;DHT22;23398;50.928;7.084;2024-02-23T12:41:31;15.00;54.70
37560;DHT22;23398;50.928;7.084;2024-02-23T12:43:56;15.00;54.90
37560;DHT22;23398;50.928;7.084;2024-02-23T12:46:22;14.90;55.10
37560;DHT22;23398;50.928;7.084;2024-02-23T12:48:49;14.80;55.20
37560;DHT22;23398;50.928;7.084;2024-02-23T12:51:15;14.80;55.40
37560;DHT22;23398;50.928;7.084;2024-02-23T12:53:41;14.80;55.50
37560;DHT22;23398;50.928;7.084;2024-02-23T12:56:09;14.80;55.70
37560;DHT22;23398;50.928;7.084;2024-02-23T12:58:39;14.70;55.50
37560;DHT22;23398;50.928;7.084;2024-02-23T13:01:05;14.80;55.60
37560;DHT22;23398;50.928;7.084;2024-02-23T13:03:32;14.90;55.80
37560;DHT22;23398;50.928;7.084;2024-02-23T13:05:59;14.90;55.90
37560;DHT22;23398;50.928;7.084;2024-02-23T13:08:25;14.90;55.90
37560;DHT22;23398;50.928;7.084;2024-02-23T13:10:52;15.10;56.00
37560;DHT22;23398;50.928;7.084;2024-02-23T13:13:19;15.10;55.70
37560;DHT22;23398;50.928;7.084;2024-02-23T13:15:45;15.20;55.70
37560;DHT22;23398;50.928;7.084;2024-02-23T13:18:11;15.20;55.70
37560;DHT22;23398;50.928;7.084;2024-02-23T13:20:37;15.30;55.70
37560;DHT22;23398;50.928;7.084;2024-02-23T13:23:04;15.40;55.60
37560;DHT22;23398;50.928;7.084;2024-02-23T13:25:30;15.40;55.50
37560;DHT22;23398;50.928;7.084;2024-02-23T13:27:56;15.40;55.40
37560;DHT22;23398;50.928;7.084;2024-02-23T13:30:23;15.50;55.40
37560;DHT22;23398;50.928;7.084;2024-02-23T13:32:48;15.50;55.40
37560;DHT22;23398;50.928;7.084;2024-02-23T13:35:14;15.50;55.50
37560;DHT22;23398;50.928;7.084;2024-02-23T13:37:41;15.50;55.40
37560;DHT22;23398;50.928;7.084;2024-02-23T13:40:08;15.50;55.40
37560;DHT22;23398;50.928;7.084;2024-02-23T13:42:35;15.60;55.40
37560;DHT22;23398;50.928;7.084;2024-02-23T13:45:00;15.70;55.30
37560;DHT22;23398;50.928;7.084;2024-02-23T13:47:26;15.70;55.20
37560;DHT22;23398;50.928;7.084;2024-02-23T13:49:51;15.70;55.20
37560;DHT22;23398;50.928;7.084;2024-02-23T13:52:17;15.80;55.60
37560;DHT22;23398;50.928;7.084;2024-02-23T13:54:43;15.80;55.40
37560;DHT22;23398;50.928;7.084;2024-02-23T13:57:08;15.80;55.20
37560;DHT22;23398;50.928;7.084;2024-02-23T13:59:34;15.80;55.00
37560;DHT22;23398;50.928;7.084;2024-02-23T14:02:00;15.80;55.00
37560;DHT22;23398;50.928;7.084;2024-02-23T14:04:25;15.70;54.60
37560;DHT22;23398;50.928;7.084;2024-02-23T14:06:51;15.70;54.70
37560;DHT22;23398;50.928;7.084;2024-02-23T14:09:17;15.70;54.60
37560;DHT22;23398;50.928;7.084;2024-02-23T14:11:42;15.70;54.60
37560;DHT22;23398;50.928;7.084;2024-02-23T14:14:08;15.60;54.40
37560;DHT22;23398;50.928;7.084;2024-02-23T14:16:34;15.70;54.60
37560;DHT22;23398;50.928;7.084;2024-02-23T14:19:00;15.70;54.90
37560;DHT22;23398;50.928;7.084;2024-02-23T14:21:26;15.70;54.80
37560;DHT22;23398;50.928;7.084;2024-02-23T14:23:52;15.70;54.80
37560;DHT22;23398;50.928;7.084;2024-02-23T14:26:17;15.60;55.00
37560;DHT22;23398;50.928;7.084;2024-02-23T14:28:43;15.60;55.30
37560;DHT22;23398;50.928;7.084;2024-02-23T14:31:09;15.60;55.60
37560;DHT22;23398;50.928;7.084;2024-02-23T14:33:34;15.60;55.50
37560;DHT22;23398;50.928;7.084;2024-02-23T14:36:00;15.60;55.40
37560;DHT22;23398;50.928;7.084;2024-02-23T14:38:25;15.60;55.10
37560;DHT22;23398;50.928;7.084;2024-02-23T14:40:51;15.60;55.60
37560;DHT22;23398;50.928;7.084;2024-02-23T14:43:18;15.60;54.70
37560;DHT22;23398;50.928;7.084;2024-02-23T14:45:44;15.60;54.70
37560;DHT22;23398;50.928;7.084;2024-02-23T14:48:09;15.60;54.90
37560;DHT22;23398;50.928;7.084;2024-02-23T14:50:35;15.50;54.60
37560;DHT22;23398;50.928;7.084;2024-02-23T14:53:01;15.50;54.50
37560;DHT22;23398;50.928;7.084;2024-02-23T14:55:26;15.50;54.40
37560;DHT22;23398;50.928;7.084;2024-02-23T14:57:52;15.50;54.40
37560;DHT22;23398;50.928;7.084;2024-02-23T15:00:18;15.30;53.30
37560;DHT22;23398;50.928;7.084;2024-02-23T15:02:43;15.30;54.10
37560;DHT22;23398;50.928;7.084;2024-02-23T15:05:09;15.30;54.20
37560;DHT22;23398;50.928;7.084;2024-02-23T15:07:35;15.30;54.40
37560;DHT22;23398;50.928;7.084;2024-02-23T15:10:04;15.20;54.20
37560;DHT22;23398;50.928;7.084;2024-02-23T15:12:36;15.20;54.20
37560;DHT22;23398;50.928;7.084;2024-02-23T15:15:02;15.10;54.30
37560;DHT22;23398;50.928;7.084;2024-02-23T15:17:29;15.00;54.50
37560;DHT22;23398;50.928;7.084;2024-02-23T15:19:55;15.00;54.70
37560;DHT22;23398;50.928;7.084;2024-02-23T15:22:20;14.90;54.80
37560;DHT22;23398;50.928;7.084;2024-02-23T15:24:46;14.90;54.90
37560;DHT22;23398;50.928;7.084;2024-02-23T15:27:15;14.80;54.90
37560;DHT22;23398;50.928;7.084;2024-02-23T15:29:41;14.80;54.90
37560;DHT22;23398;50.928;7.084;2024-02-23T15:32:07;14.80;54.80